Atascosa, Texas
Current Conditions -  °F | °C
As of 6:35 PM on Friday 24 Oct 2014 (Local Time) from KCVB Reporting Station
Broken Clouds Broken Clouds  
Wind Chill: 85°   Ceiling: 7000
Heat Index: 85°   Visibility: 10mi
Dew Point: 53°   Wind: 3mph
Humidity: 34%   Direction: 150°SSE
Pressure: 30.09"   Gusts: NA
Location:  29.28°N, 98.74°W
Report Text: KCVB 242335Z AUTO 15003KT 10SM BKN070 29/12 A3009 RMK AO2 T02920117
Loading
Personal Weather Stations






























Interactive Weather Map
Tropical Storm Tracking
New forecast layout! Learn more

10-Day Weather Forecast

Advertisements
Track Severe Weather on mobile